sensor_id;sensor_type;location;lat;lon;timestamp;P1;durP1;ratioP1;P2;durP2;ratioP2
10497;SDS011;5296;51.060;13.750;2022-08-04T00:08:18;3.85;;;3.42;;
10497;SDS011;5296;51.060;13.750;2022-08-04T00:13:26;4.45;;;4.10;;
10497;SDS011;5296;51.060;13.750;2022-08-04T00:18:33;4.00;;;3.25;;
10497;SDS011;5296;51.060;13.750;2022-08-04T00:23:42;3.65;;;3.33;;
10497;SDS011;5296;51.060;13.750;2022-08-04T00:29:05;4.90;;;3.72;;
10497;SDS011;5296;51.060;13.750;2022-08-04T00:34:06;6.38;;;3.55;;
10497;SDS011;5296;51.060;13.750;2022-08-04T00:39:14;4.20;;;3.78;;
10497;SDS011;5296;51.060;13.750;2022-08-04T00:54:56;6.32;;;3.65;;
10497;SDS011;5296;51.060;13.750;2022-08-04T01:00:09;4.03;;;3.63;;
10497;SDS011;5296;51.060;13.750;2022-08-04T01:11:02;4.03;;;3.63;;
10497;SDS011;5296;51.060;13.750;2022-08-04T01:16:08;4.88;;;3.47;;
10497;SDS011;5296;51.060;13.750;2022-08-04T01:26:37;5.78;;;3.83;;
10497;SDS011;5296;51.060;13.750;2022-08-04T01:32:00;4.32;;;3.92;;
10497;SDS011;5296;51.060;13.750;2022-08-04T01:37:27;4.93;;;4.20;;
10497;SDS011;5296;51.060;13.750;2022-08-04T01:42:24;5.00;;;4.40;;
10497;SDS011;5296;51.060;13.750;2022-08-04T01:47:36;6.68;;;4.20;;
10497;SDS011;5296;51.060;13.750;2022-08-04T01:52:40;5.97;;;4.10;;
10497;SDS011;5296;51.060;13.750;2022-08-04T01:57:49;4.18;;;3.88;;
10497;SDS011;5296;51.060;13.750;2022-08-04T02:02:52;4.57;;;4.18;;
10497;SDS011;5296;51.060;13.750;2022-08-04T02:18:38;4.47;;;4.07;;
10497;SDS011;5296;51.060;13.750;2022-08-04T02:24:04;5.38;;;4.30;;
10497;SDS011;5296;51.060;13.750;2022-08-04T02:29:18;5.70;;;4.47;;
10497;SDS011;5296;51.060;13.750;2022-08-04T02:34:26;4.78;;;4.38;;
10497;SDS011;5296;51.060;13.750;2022-08-04T02:39:33;5.53;;;4.22;;
10497;SDS011;5296;51.060;13.750;2022-08-04T02:44:50;6.43;;;4.45;;
10497;SDS011;5296;51.060;13.750;2022-08-04T02:49:52;4.40;;;3.97;;
10497;SDS011;5296;51.060;13.750;2022-08-04T02:54:57;5.57;;;4.43;;
10497;SDS011;5296;51.060;13.750;2022-08-04T03:00:08;4.88;;;4.32;;
10497;SDS011;5296;51.060;13.750;2022-08-04T03:05:18;5.45;;;4.10;;
10497;SDS011;5296;51.060;13.750;2022-08-04T03:15:50;5.63;;;4.50;;
10497;SDS011;5296;51.060;13.750;2022-08-04T03:42:59;5.30;;;4.38;;
10497;SDS011;5296;51.060;13.750;2022-08-04T03:48:43;4.65;;;4.25;;
10497;SDS011;5296;51.060;13.750;2022-08-04T03:54:08;4.93;;;4.47;;
10497;SDS011;5296;51.060;13.750;2022-08-04T04:15:35;6.13;;;4.15;;
10497;SDS011;5296;51.060;13.750;2022-08-04T04:47:30;4.07;;;3.78;;
10497;SDS011;5296;51.060;13.750;2022-08-04T04:58:34;6.50;;;3.75;;
10497;SDS011;5296;51.060;13.750;2022-08-04T05:08:53;3.70;;;3.40;;
10497;SDS011;5296;51.060;13.750;2022-08-04T05:14:14;7.43;;;4.07;;
10497;SDS011;5296;51.060;13.750;2022-08-04T05:24:46;8.85;;;4.30;;
10497;SDS011;5296;51.060;13.750;2022-08-04T05:29:59;6.80;;;3.30;;
10497;SDS011;5296;51.060;13.750;2022-08-04T05:35:06;4.63;;;3.72;;
10497;SDS011;5296;51.060;13.750;2022-08-04T05:40:12;5.50;;;2.95;;
10497;SDS011;5296;51.060;13.750;2022-08-04T05:45:15;6.97;;;3.55;;
10497;SDS011;5296;51.060;13.750;2022-08-04T05:50:17;5.88;;;3.00;;
10497;SDS011;5296;51.060;13.750;2022-08-04T05:55:19;6.40;;;3.22;;
10497;SDS011;5296;51.060;13.750;2022-08-04T06:00:41;5.15;;;3.13;;
10497;SDS011;5296;51.060;13.750;2022-08-04T06:05:52;3.30;;;3.00;;
10497;SDS011;5296;51.060;13.750;2022-08-04T06:10:54;3.20;;;2.90;;
10497;SDS011;5296;51.060;13.750;2022-08-04T06:15:58;3.75;;;3.00;;
10497;SDS011;5296;51.060;13.750;2022-08-04T06:21:02;7.05;;;3.15;;
10497;SDS011;5296;51.060;13.750;2022-08-04T06:26:16;3.28;;;2.97;;
10497;SDS011;5296;51.060;13.750;2022-08-04T06:31:20;3.28;;;2.80;;
10497;SDS011;5296;51.060;13.750;2022-08-04T06:37:02;3.42;;;3.10;;
10497;SDS011;5296;51.060;13.750;2022-08-04T06:42:04;4.93;;;3.35;;
10497;SDS011;5296;51.060;13.750;2022-08-04T06:47:24;4.18;;;2.88;;
10497;SDS011;5296;51.060;13.750;2022-08-04T06:52:26;6.10;;;2.97;;
10497;SDS011;5296;51.060;13.750;2022-08-04T06:57:28;3.17;;;2.97;;
10497;SDS011;5296;51.060;13.750;2022-08-04T07:02:32;3.97;;;2.83;;
10497;SDS011;5296;51.060;13.750;2022-08-04T07:07:37;3.10;;;2.80;;
10497;SDS011;5296;51.060;13.750;2022-08-04T07:12:59;3.20;;;2.90;;
10497;SDS011;5296;51.060;13.750;2022-08-04T07:18:01;3.63;;;3.33;;
10497;SDS011;5296;51.060;13.750;2022-08-04T07:23:05;3.35;;;3.05;;
10497;SDS011;5296;51.060;13.750;2022-08-04T07:28:07;4.03;;;2.90;;
10497;SDS011;5296;51.060;13.750;2022-08-04T07:33:09;4.82;;;2.92;;
10497;SDS011;5296;51.060;13.750;2022-08-04T07:38:11;3.75;;;2.70;;
10497;SDS011;5296;51.060;13.750;2022-08-04T07:43:16;11.10;;;2.90;;
10497;SDS011;5296;51.060;13.750;2022-08-04T07:48:18;4.03;;;3.03;;
10497;SDS011;5296;51.060;13.750;2022-08-04T07:53:22;3.45;;;2.70;;
10497;SDS011;5296;51.060;13.750;2022-08-04T07:58:45;5.95;;;2.92;;
10497;SDS011;5296;51.060;13.750;2022-08-04T08:03:50;5.93;;;2.97;;
10497;SDS011;5296;51.060;13.750;2022-08-04T08:08:54;4.35;;;2.70;;
10497;SDS011;5296;51.060;13.750;2022-08-04T08:13:56;7.60;;;3.00;;
10497;SDS011;5296;51.060;13.750;2022-08-04T08:18:59;4.60;;;2.90;;
10497;SDS011;5296;51.060;13.750;2022-08-04T08:24:01;4.97;;;2.88;;
10497;SDS011;5296;51.060;13.750;2022-08-04T08:29:03;4.50;;;3.00;;
10497;SDS011;5296;51.060;13.750;2022-08-04T08:34:05;4.07;;;2.80;;
10497;SDS011;5296;51.060;13.750;2022-08-04T08:39:11;4.85;;;2.63;;
10497;SDS011;5296;51.060;13.750;2022-08-04T08:49:51;5.35;;;2.60;;
10497;SDS011;5296;51.060;13.750;2022-08-04T09:05:37;3.72;;;2.60;;
10497;SDS011;5296;51.060;13.750;2022-08-04T09:10:48;3.40;;;2.45;;
10497;SDS011;5296;51.060;13.750;2022-08-04T09:15:56;4.07;;;2.10;;
10497;SDS011;5296;51.060;13.750;2022-08-04T09:21:04;2.55;;;2.22;;
10497;SDS011;5296;51.060;13.750;2022-08-04T09:26:17;2.75;;;2.10;;
10497;SDS011;5296;51.060;13.750;2022-08-04T09:31:29;2.58;;;2.20;;
10497;SDS011;5296;51.060;13.750;2022-08-04T09:47:39;2.03;;;1.83;;
10497;SDS011;5296;51.060;13.750;2022-08-04T10:03:44;2.78;;;2.33;;
10497;SDS011;5296;51.060;13.750;2022-08-04T10:08:58;2.67;;;2.30;;
10497;SDS011;5296;51.060;13.750;2022-08-04T10:19:55;2.72;;;2.00;;
10497;SDS011;5296;51.060;13.750;2022-08-04T10:31:32;2.45;;;2.28;;
10497;SDS011;5296;51.060;13.750;2022-08-04T10:36:42;4.40;;;2.58;;
10497;SDS011;5296;51.060;13.750;2022-08-04T10:42:05;2.78;;;2.38;;
10497;SDS011;5296;51.060;13.750;2022-08-04T10:47:23;2.50;;;1.98;;
10497;SDS011;5296;51.060;13.750;2022-08-04T10:57:35;4.53;;;2.42;;
10497;SDS011;5296;51.060;13.750;2022-08-04T11:07:46;2.65;;;2.00;;
10497;SDS011;5296;51.060;13.750;2022-08-04T11:12:53;4.72;;;2.47;;
10497;SDS011;5296;51.060;13.750;2022-08-04T11:17:58;2.35;;;2.20;;
10497;SDS011;5296;51.060;13.750;2022-08-04T11:23:16;3.55;;;2.20;;
10497;SDS011;5296;51.060;13.750;2022-08-04T11:34:09;2.08;;;1.98;;
10497;SDS011;5296;51.060;13.750;2022-08-04T11:39:29;3.80;;;2.10;;
10497;SDS011;5296;51.060;13.750;2022-08-04T11:50:12;2.70;;;2.30;;
10497;SDS011;5296;51.060;13.750;2022-08-04T11:55:20;2.40;;;2.20;;
10497;SDS011;5296;51.060;13.750;2022-08-04T12:00:24;4.72;;;2.20;;
10497;SDS011;5296;51.060;13.750;2022-08-04T12:05:30;2.72;;;2.20;;
10497;SDS011;5296;51.060;13.750;2022-08-04T12:16:00;4.97;;;2.25;;
10497;SDS011;5296;51.060;13.750;2022-08-04T12:21:13;2.85;;;2.20;;
10497;SDS011;5296;51.060;13.750;2022-08-04T12:26:24;3.50;;;2.30;;
10497;SDS011;5296;51.060;13.750;2022-08-04T12:31:29;3.20;;;2.17;;
10497;SDS011;5296;51.060;13.750;2022-08-04T12:42:12;2.35;;;2.10;;
10497;SDS011;5296;51.060;13.750;2022-08-04T12:47:22;3.90;;;2.05;;
10497;SDS011;5296;51.060;13.750;2022-08-04T12:52:29;4.97;;;2.50;;
10497;SDS011;5296;51.060;13.750;2022-08-04T12:57:53;2.78;;;2.30;;
10497;SDS011;5296;51.060;13.750;2022-08-04T13:02:57;6.28;;;2.35;;
10497;SDS011;5296;51.060;13.750;2022-08-04T13:08:02;2.20;;;2.03;;
10497;SDS011;5296;51.060;13.750;2022-08-04T13:13:05;2.88;;;2.50;;
10497;SDS011;5296;51.060;13.750;2022-08-04T13:18:12;2.10;;;2.00;;
10497;SDS011;5296;51.060;13.750;2022-08-04T13:23:15;3.13;;;2.20;;
10497;SDS011;5296;51.060;13.750;2022-08-04T13:28:23;4.80;;;2.40;;
10497;SDS011;5296;51.060;13.750;2022-08-04T13:33:28;5.25;;;2.50;;
10497;SDS011;5296;51.060;13.750;2022-08-04T13:38:32;2.75;;;2.30;;
10497;SDS011;5296;51.060;13.750;2022-08-04T13:43:42;2.72;;;2.50;;
10497;SDS011;5296;51.060;13.750;2022-08-04T13:49:07;3.10;;;2.80;;
10497;SDS011;5296;51.060;13.750;2022-08-04T13:54:38;3.75;;;2.58;;
10497;SDS011;5296;51.060;13.750;2022-08-04T13:59:44;4.78;;;2.53;;
10497;SDS011;5296;51.060;13.750;2022-08-04T14:04:50;4.60;;;2.47;;
10497;SDS011;5296;51.060;13.750;2022-08-04T14:09:57;4.55;;;2.45;;
10497;SDS011;5296;51.060;13.750;2022-08-04T14:15:04;3.13;;;2.65;;
10497;SDS011;5296;51.060;13.750;2022-08-04T14:20:06;4.47;;;2.83;;
10497;SDS011;5296;51.060;13.750;2022-08-04T14:25:14;2.80;;;2.60;;
10497;SDS011;5296;51.060;13.750;2022-08-04T14:30:25;4.65;;;2.60;;
10497;SDS011;5296;51.060;13.750;2022-08-04T14:35:34;3.17;;;2.60;;
10497;SDS011;5296;51.060;13.750;2022-08-04T14:40:58;4.63;;;2.50;;
10497;SDS011;5296;51.060;13.750;2022-08-04T14:46:03;5.75;;;2.60;;
10497;SDS011;5296;51.060;13.750;2022-08-04T14:51:10;2.45;;;2.25;;
10497;SDS011;5296;51.060;13.750;2022-08-04T14:56:14;3.72;;;2.58;;
10497;SDS011;5296;51.060;13.750;2022-08-04T15:01:37;5.60;;;2.60;;
10497;SDS011;5296;51.060;13.750;2022-08-04T15:06:39;2.63;;;2.42;;
10497;SDS011;5296;51.060;13.750;2022-08-04T15:11:41;5.60;;;2.55;;
10497;SDS011;5296;51.060;13.750;2022-08-04T15:16:44;3.22;;;2.47;;
10497;SDS011;5296;51.060;13.750;2022-08-04T15:21:54;4.35;;;2.55;;
10497;SDS011;5296;51.060;13.750;2022-08-04T15:26:56;5.50;;;2.88;;
10497;SDS011;5296;51.060;13.750;2022-08-04T15:32:04;7.20;;;2.80;;
10497;SDS011;5296;51.060;13.750;2022-08-04T15:37:09;5.28;;;2.80;;
10497;SDS011;5296;51.060;13.750;2022-08-04T15:53:03;3.97;;;2.60;;
10497;SDS011;5296;51.060;13.750;2022-08-04T15:58:14;5.57;;;2.42;;
10497;SDS011;5296;51.060;13.750;2022-08-04T16:08:56;3.33;;;2.28;;
10497;SDS011;5296;51.060;13.750;2022-08-04T16:19:04;3.45;;;2.47;;
10497;SDS011;5296;51.060;13.750;2022-08-04T16:24:13;3.05;;;2.55;;
10497;SDS011;5296;51.060;13.750;2022-08-04T16:34:23;5.32;;;2.60;;
10497;SDS011;5296;51.060;13.750;2022-08-04T16:39:47;2.53;;;2.30;;
10497;SDS011;5296;51.060;13.750;2022-08-04T16:45:08;2.55;;;2.35;;
10497;SDS011;5296;51.060;13.750;2022-08-04T16:55:19;4.18;;;2.30;;
10497;SDS011;5296;51.060;13.750;2022-08-04T17:00:29;4.00;;;2.83;;
10497;SDS011;5296;51.060;13.750;2022-08-04T17:05:37;2.88;;;2.30;;
10497;SDS011;5296;51.060;13.750;2022-08-04T17:10:41;3.60;;;2.42;;
10497;SDS011;5296;51.060;13.750;2022-08-04T17:15:49;6.63;;;2.42;;
10497;SDS011;5296;51.060;13.750;2022-08-04T17:20:53;5.53;;;2.88;;
10497;SDS011;5296;51.060;13.750;2022-08-04T17:26:16;2.90;;;2.53;;
10497;SDS011;5296;51.060;13.750;2022-08-04T17:31:18;3.22;;;2.28;;
10497;SDS011;5296;51.060;13.750;2022-08-04T17:36:22;3.70;;;2.38;;
10497;SDS011;5296;51.060;13.750;2022-08-04T17:41:29;4.05;;;2.50;;
10497;SDS011;5296;51.060;13.750;2022-08-04T17:46:43;2.65;;;2.45;;
10497;SDS011;5296;51.060;13.750;2022-08-04T17:57:14;3.22;;;2.53;;
10497;SDS011;5296;51.060;13.750;2022-08-04T18:02:30;5.65;;;2.67;;
10497;SDS011;5296;51.060;13.750;2022-08-04T18:07:35;4.20;;;3.90;;
10497;SDS011;5296;51.060;13.750;2022-08-04T18:13:04;4.70;;;2.40;;
10497;SDS011;5296;51.060;13.750;2022-08-04T18:18:18;7.07;;;2.65;;
10497;SDS011;5296;51.060;13.750;2022-08-04T18:23:23;4.30;;;2.30;;
10497;SDS011;5296;51.060;13.750;2022-08-04T18:28:33;3.47;;;2.30;;
10497;SDS011;5296;51.060;13.750;2022-08-04T18:33:35;3.92;;;2.40;;
10497;SDS011;5296;51.060;13.750;2022-08-04T18:38:42;8.63;;;2.58;;
10497;SDS011;5296;51.060;13.750;2022-08-04T18:43:58;7.63;;;2.45;;
10497;SDS011;5296;51.060;13.750;2022-08-04T18:49:00;2.95;;;2.30;;
10497;SDS011;5296;51.060;13.750;2022-08-04T18:54:02;4.13;;;2.30;;
10497;SDS011;5296;51.060;13.750;2022-08-04T18:59:06;4.03;;;2.42;;
10497;SDS011;5296;51.060;13.750;2022-08-04T19:04:10;7.32;;;2.80;;
10497;SDS011;5296;51.060;13.750;2022-08-04T19:09:32;3.58;;;2.28;;
10497;SDS011;5296;51.060;13.750;2022-08-04T19:14:52;2.65;;;2.30;;
10497;SDS011;5296;51.060;13.750;2022-08-04T19:19:59;3.85;;;2.33;;
10497;SDS011;5296;51.060;13.750;2022-08-04T19:25:00;4.38;;;2.30;;
10497;SDS011;5296;51.060;13.750;2022-08-04T19:30:02;4.10;;;2.30;;
10497;SDS011;5296;51.060;13.750;2022-08-04T19:35:05;2.50;;;2.30;;
10497;SDS011;5296;51.060;13.750;2022-08-04T19:40:11;3.85;;;2.60;;
10497;SDS011;5296;51.060;13.750;2022-08-04T19:45:15;3.47;;;2.17;;
10497;SDS011;5296;51.060;13.750;2022-08-04T19:50:17;2.88;;;2.33;;
10497;SDS011;5296;51.060;13.750;2022-08-04T19:55:19;2.88;;;2.55;;
10497;SDS011;5296;51.060;13.750;2022-08-04T20:00:37;3.15;;;2.65;;
10497;SDS011;5296;51.060;13.750;2022-08-04T20:05:40;2.67;;;2.47;;
10497;SDS011;5296;51.060;13.750;2022-08-04T20:10:56;3.13;;;2.47;;
10497;SDS011;5296;51.060;13.750;2022-08-04T20:15:59;4.88;;;2.38;;
10497;SDS011;5296;51.060;13.750;2022-08-04T20:21:01;3.42;;;2.28;;
10497;SDS011;5296;51.060;13.750;2022-08-04T20:26:02;5.90;;;2.50;;
10497;SDS011;5296;51.060;13.750;2022-08-04T20:31:04;3.05;;;2.45;;
10497;SDS011;5296;51.060;13.750;2022-08-04T20:36:08;3.65;;;2.58;;
10497;SDS011;5296;51.060;13.750;2022-08-04T20:41:10;2.60;;;2.40;;
10497;SDS011;5296;51.060;13.750;2022-08-04T20:46:13;4.00;;;2.40;;
10497;SDS011;5296;51.060;13.750;2022-08-04T20:51:29;3.20;;;2.40;;
10497;SDS011;5296;51.060;13.750;2022-08-04T20:56:33;2.78;;;2.55;;
10497;SDS011;5296;51.060;13.750;2022-08-04T21:01:35;2.60;;;2.40;;
10497;SDS011;5296;51.060;13.750;2022-08-04T21:06:37;3.60;;;2.60;;
10497;SDS011;5296;51.060;13.750;2022-08-04T21:11:38;2.97;;;2.20;;
10497;SDS011;5296;51.060;13.750;2022-08-04T21:16:42;2.55;;;2.35;;
10497;SDS011;5296;51.060;13.750;2022-08-04T21:21:56;2.88;;;2.67;;
10497;SDS011;5296;51.060;13.750;2022-08-04T21:26:59;2.85;;;2.40;;
10497;SDS011;5296;51.060;13.750;2022-08-04T21:32:02;2.63;;;2.42;;
10497;SDS011;5296;51.060;13.750;2022-08-04T21:37:06;3.17;;;2.50;;
10497;SDS011;5296;51.060;13.750;2022-08-04T21:42:11;7.00;;;2.85;;
10497;SDS011;5296;51.060;13.750;2022-08-04T21:47:30;4.57;;;4.28;;
10497;SDS011;5296;51.060;13.750;2022-08-04T21:52:47;3.17;;;2.60;;
10497;SDS011;5296;51.060;13.750;2022-08-04T21:57:49;2.70;;;2.45;;
10497;SDS011;5296;51.060;13.750;2022-08-04T22:02:51;4.07;;;2.80;;
10497;SDS011;5296;51.060;13.750;2022-08-04T22:07:54;4.30;;;3.13;;
10497;SDS011;5296;51.060;13.750;2022-08-04T22:12:55;4.35;;;2.60;;
10497;SDS011;5296;51.060;13.750;2022-08-04T22:17:58;5.80;;;3.25;;
10497;SDS011;5296;51.060;13.750;2022-08-04T22:23:04;5.28;;;2.83;;
10497;SDS011;5296;51.060;13.750;2022-08-04T22:28:19;4.65;;;3.30;;
10497;SDS011;5296;51.060;13.750;2022-08-04T22:33:20;5.07;;;3.22;;
10497;SDS011;5296;51.060;13.750;2022-08-04T22:38:23;3.10;;;2.80;;
10497;SDS011;5296;51.060;13.750;2022-08-04T22:43:44;4.30;;;3.13;;
10497;SDS011;5296;51.060;13.750;2022-08-04T22:48:55;4.43;;;2.92;;
10497;SDS011;5296;51.060;13.750;2022-08-04T22:53:57;3.28;;;2.83;;
10497;SDS011;5296;51.060;13.750;2022-08-04T22:59:01;5.28;;;3.00;;
10497;SDS011;5296;51.060;13.750;2022-08-04T23:04:03;3.40;;;3.10;;
10497;SDS011;5296;51.060;13.750;2022-08-04T23:09:04;4.13;;;3.35;;
10497;SDS011;5296;51.060;13.750;2022-08-04T23:14:16;3.00;;;2.80;;
10497;SDS011;5296;51.060;13.750;2022-08-04T23:19:17;6.15;;;3.08;;
10497;SDS011;5296;51.060;13.750;2022-08-04T23:24:24;5.45;;;3.30;;
10497;SDS011;5296;51.060;13.750;2022-08-04T23:29:30;3.63;;;3.30;;
10497;SDS011;5296;51.060;13.750;2022-08-04T23:34:52;3.38;;;3.08;;
10497;SDS011;5296;51.060;13.750;2022-08-04T23:39:53;3.65;;;3.30;;
10497;SDS011;5296;51.060;13.750;2022-08-04T23:45:15;3.63;;;3.33;;
10497;SDS011;5296;51.060;13.750;2022-08-04T23:50:36;3.47;;;3.08;;
10497;SDS011;5296;51.060;13.750;2022-08-04T23:55:39;3.70;;;3.40;;
